createdAt,value
2019-04-06T00:01:43.466Z,9.10
2019-04-06T00:04:46.905Z,9.10
2019-04-06T00:07:51.159Z,9.10
2019-04-06T00:10:55.156Z,9.10
2019-04-06T00:13:58.675Z,9.10
2019-04-06T00:17:01.916Z,9.10
2019-04-06T00:20:05.298Z,9.10
2019-04-06T00:23:08.210Z,9.10
2019-04-06T00:26:11.121Z,9.10
2019-04-06T00:29:14.131Z,9.20
2019-04-06T00:32:24.684Z,9.20
2019-04-06T00:35:27.596Z,9.20
2019-04-06T00:38:30.517Z,9.20
2019-04-06T00:41:33.467Z,9.10
2019-04-06T00:44:36.729Z,9.10
2019-04-06T00:47:39.626Z,9.10
2019-04-06T00:50:42.543Z,9.10
2019-04-06T00:53:45.444Z,9.20
2019-04-06T00:56:48.369Z,9.20
2019-04-06T00:59:51.286Z,9.20
2019-04-06T01:02:54.200Z,9.20
2019-04-06T01:05:57.402Z,9.20
2019-04-06T01:09:00.666Z,9.20
2019-04-06T01:12:03.584Z,9.10
2019-04-06T01:15:07.131Z,9.20
2019-04-06T01:18:10.087Z,9.20
2019-04-06T01:21:13.015Z,9.20
2019-04-06T01:24:15.954Z,9.20
2019-04-06T01:27:19.339Z,9.20
2019-04-06T01:30:22.322Z,9.20
2019-04-06T01:33:25.533Z,9.20
2019-04-06T01:36:28.546Z,9.20
2019-04-06T01:39:31.827Z,9.20
2019-04-06T01:42:34.855Z,9.20
2019-04-06T01:45:38.883Z,9.20
2019-04-06T01:48:42.475Z,9.20
2019-04-06T01:51:45.807Z,9.20
2019-04-06T01:54:48.722Z,9.20
2019-04-06T01:57:51.624Z,9.20
2019-04-06T02:01:13.253Z,9.20
2019-04-06T02:04:17.482Z,9.20
2019-04-06T02:07:20.787Z,9.20
2019-04-06T02:10:24.071Z,9.20
2019-04-06T02:13:28.070Z,9.20
2019-04-06T02:16:31.022Z,9.20
2019-04-06T02:19:34.012Z,9.20
2019-04-06T02:22:37.242Z,9.20
2019-04-06T02:25:40.169Z,9.20
2019-04-06T02:28:43.072Z,9.20
2019-04-06T02:32:17.853Z,9.20
2019-04-06T02:35:42.339Z,9.20
2019-04-06T02:39:06.293Z,9.20
2019-04-06T02:42:13.953Z,9.20
2019-04-06T02:45:16.922Z,9.20
2019-04-06T02:48:19.998Z,9.20
2019-04-06T02:51:23.625Z,9.20
2019-04-06T02:54:26.928Z,9.20
2019-04-06T02:57:29.853Z,9.20
2019-04-06T03:00:33.458Z,9.20
2019-04-06T03:03:36.389Z,9.20
2019-04-06T03:06:40.428Z,9.20
2019-04-06T03:09:43.325Z,9.20
2019-04-06T03:12:46.255Z,9.20
2019-04-06T03:15:49.197Z,9.20
2019-04-06T03:18:52.174Z,9.20
2019-04-06T03:21:55.609Z,9.30
2019-04-06T03:24:59.318Z,9.20
2019-04-06T03:28:02.673Z,9.20
2019-04-06T03:31:05.849Z,9.20
2019-04-06T03:34:09.166Z,9.20
2019-04-06T03:37:12.545Z,9.20
2019-04-06T03:40:15.867Z,9.20
2019-04-06T03:43:19.108Z,9.20
2019-04-06T03:46:23.135Z,9.20
2019-04-06T03:49:26.518Z,9.20
2019-04-06T03:52:29.714Z,9.40
2019-04-06T03:55:32.656Z,9.20
2019-04-06T03:58:35.922Z,9.30
2019-04-06T04:01:39.743Z,9.20
2019-04-06T04:04:43.547Z,9.20
2019-04-06T04:07:46.572Z,9.20
2019-04-06T04:10:49.590Z,9.20
2019-04-06T04:13:53.169Z,9.20
2019-04-06T04:16:56.541Z,9.20
2019-04-06T04:19:59.629Z,9.20
2019-04-06T04:23:03.137Z,9.20
2019-04-06T04:26:06.004Z,9.20
2019-04-06T04:29:09.329Z,9.20
2019-04-06T04:32:12.404Z,9.20
2019-04-06T04:35:18.324Z,9.20
2019-04-06T04:38:20.600Z,9.20
2019-04-06T04:41:23.651Z,9.20
2019-04-06T04:44:26.967Z,9.20
2019-04-06T04:47:29.940Z,9.20
2019-04-06T04:50:32.858Z,9.10
2019-04-06T04:53:35.775Z,9.10
2019-04-06T04:56:38.679Z,9.10
2019-04-06T04:59:41.923Z,9.20
2019-04-06T05:02:45.138Z,9.20
2019-04-06T05:05:49.458Z,9.20
2019-04-06T05:08:52.372Z,9.20
2019-04-06T05:11:55.694Z,9.20
2019-04-06T05:15:02.390Z,9.10
2019-04-06T05:18:06.512Z,9.10
2019-04-06T05:21:09.735Z,9.20
2019-04-06T05:24:12.735Z,9.20
2019-04-06T05:27:16.101Z,9.20
2019-04-06T05:30:19.308Z,9.20
2019-04-06T05:33:22.213Z,9.20
2019-04-06T05:36:25.143Z,9.20
2019-04-06T05:39:28.782Z,9.20
2019-04-06T05:42:32.384Z,9.20
2019-04-06T05:45:36.709Z,9.20
2019-04-06T05:48:40.306Z,9.20
2019-04-06T05:51:43.753Z,9.30
2019-04-06T05:54:47.124Z,9.30
2019-04-06T05:57:50.403Z,9.30
2019-04-06T06:00:54.115Z,9.30
2019-04-06T06:03:57.146Z,9.30
2019-04-06T06:07:00.088Z,9.30
2019-04-06T06:10:03.830Z,9.30
2019-04-06T06:13:06.719Z,9.30
2019-04-06T06:16:11.526Z,9.40
2019-04-06T06:19:15.165Z,9.40
2019-04-06T06:22:18.353Z,9.50
2019-04-06T06:25:21.261Z,9.50
2019-04-06T06:28:24.241Z,9.40
2019-04-06T06:31:27.296Z,9.50
2019-04-06T06:34:30.517Z,9.50
2019-04-06T06:37:33.438Z,9.60
2019-04-06T06:40:36.351Z,9.50
2019-04-06T06:43:39.251Z,9.50
2019-04-06T06:46:42.296Z,9.60
2019-04-06T06:49:45.629Z,9.60
2019-04-06T06:52:48.610Z,9.60
2019-04-06T06:55:53.352Z,9.60
2019-04-06T06:58:56.833Z,9.60
2019-04-06T07:02:00.528Z,9.60
2019-04-06T07:05:05.824Z,9.60
2019-04-06T07:08:08.751Z,9.70
2019-04-06T07:11:12.275Z,9.70
2019-04-06T07:14:15.600Z,9.70
2019-04-06T07:17:18.707Z,9.80
2019-04-06T07:20:21.597Z,9.90
2019-04-06T07:23:24.830Z,9.80
2019-04-06T07:26:27.720Z,9.80
2019-04-06T07:29:31.059Z,9.80
2019-04-06T07:32:34.589Z,9.90
2019-04-06T07:35:37.472Z,10.00
2019-04-06T07:38:40.796Z,9.90
2019-04-06T07:41:44.141Z,9.90
2019-04-06T07:44:47.403Z,10.00
2019-04-06T07:47:50.414Z,10.00
2019-04-06T07:50:53.338Z,10.10
2019-04-06T07:53:56.256Z,10.10
2019-04-06T07:56:59.162Z,10.10
2019-04-06T08:00:02.510Z,10.10
2019-04-06T08:03:07.265Z,10.10
2019-04-06T08:06:10.456Z,10.20
2019-04-06T08:09:13.376Z,10.30
2019-04-06T08:12:16.715Z,10.40
2019-04-06T08:15:19.755Z,10.40
2019-04-06T08:18:23.234Z,10.40
2019-04-06T08:21:26.276Z,10.50
2019-04-06T08:24:29.562Z,10.60
2019-04-06T08:27:32.529Z,10.70
2019-04-06T08:30:44.749Z,10.70
2019-04-06T08:33:40.884Z,10.80
2019-04-06T08:36:44.252Z,10.90
2019-04-06T08:39:47.738Z,10.90
2019-04-06T08:42:51.462Z,11.00
2019-04-06T08:45:54.996Z,11.00
2019-04-06T08:48:58.872Z,11.10
2019-04-06T08:52:03.001Z,11.30
2019-04-06T08:55:06.040Z,11.40
2019-04-06T08:58:08.981Z,11.60
2019-04-06T09:01:11.878Z,11.70
2019-04-06T09:04:15.531Z,11.70
2019-04-06T09:07:18.823Z,11.70
2019-04-06T09:10:22.439Z,11.70
2019-04-06T09:13:25.354Z,11.70
2019-04-06T09:16:28.259Z,11.70
2019-04-06T09:19:31.192Z,11.80
2019-04-06T09:22:34.483Z,11.80
2019-04-06T09:25:38.518Z,11.70
2019-04-06T09:28:42.515Z,11.70
2019-04-06T09:31:45.725Z,11.70
2019-04-06T09:34:48.665Z,11.70
2019-04-06T09:37:51.573Z,11.70
2019-04-06T09:40:54.525Z,11.80
2019-04-06T09:43:57.521Z,11.70
2019-04-06T09:47:04.701Z,11.80
2019-04-06T09:50:25.896Z,11.80
2019-04-06T09:53:51.398Z,12.00
2019-04-06T09:57:13.310Z,12.00
2019-04-06T10:00:26.398Z,12.00
2019-04-06T10:03:36.338Z,11.90
2019-04-06T10:07:00.343Z,11.90
2019-04-06T10:10:18.797Z,12.00
2019-04-06T10:13:41.284Z,12.20
2019-04-06T10:17:03.826Z,12.30
2019-04-06T10:20:44.033Z,12.40
2019-04-06T10:24:05.696Z,12.60
2019-04-06T10:27:52.051Z,12.70
2019-04-06T10:31:15.877Z,12.70
2019-04-06T10:34:37.394Z,13.20
2019-04-06T10:38:09.309Z,13.70
2019-04-06T10:41:26.162Z,13.80
2019-04-06T10:45:01.729Z,14.10
2019-04-06T10:48:19.135Z,14.00
2019-04-06T10:51:41.361Z,14.10
2019-04-06T10:55:03.827Z,14.10
2019-04-06T10:58:18.065Z,14.10
2019-04-06T11:01:37.762Z,14.20
2019-04-06T11:04:47.125Z,14.30
2019-04-06T11:08:24.724Z,14.30
2019-04-06T11:11:56.217Z,14.40
2019-04-06T11:15:09.144Z,14.70
2019-04-06T11:18:30.761Z,14.90
2019-04-06T11:21:52.622Z,15.00
2019-04-06T11:25:12.398Z,15.10
2019-04-06T11:28:28.126Z,15.40
2019-04-06T11:31:49.858Z,15.70
2019-04-06T11:35:05.300Z,16.30
2019-04-06T11:38:26.750Z,16.30
2019-04-06T11:41:49.248Z,15.80
2019-04-06T11:45:24.147Z,15.30
2019-04-06T11:48:46.085Z,15.10
2019-04-06T11:52:11.893Z,14.90
2019-04-06T11:55:37.473Z,14.70
2019-04-06T11:58:53.491Z,14.80
2019-04-06T12:02:15.402Z,14.80
2019-04-06T12:05:47.308Z,14.60
2019-04-06T12:09:10.642Z,14.80
2019-04-06T12:12:36.044Z,14.80
2019-04-06T12:16:01.905Z,14.90
2019-04-06T12:19:23.368Z,15.10
2019-04-06T12:22:45.864Z,15.70
2019-04-06T12:25:58.033Z,15.90
2019-04-06T12:29:16.554Z,15.90
2019-04-06T12:32:31.514Z,15.80
2019-04-06T12:35:57.101Z,15.60
2019-04-06T12:39:19.100Z,15.40
2019-04-06T12:42:42.268Z,15.70
2019-04-06T12:46:05.747Z,15.80
2019-04-06T12:49:27.136Z,15.60
2019-04-06T12:52:45.089Z,15.30
2019-04-06T12:55:56.813Z,15.10
2019-04-06T12:59:22.478Z,15.10
2019-04-06T13:02:34.728Z,15.10
2019-04-06T13:05:56.213Z,15.10
2019-04-06T13:09:12.470Z,15.10
2019-04-06T13:12:47.158Z,15.10
2019-04-06T13:16:16.011Z,15.10
2019-04-06T13:19:44.392Z,15.00
2019-04-06T13:22:58.515Z,15.10
2019-04-06T13:26:08.792Z,15.20
2019-04-06T13:29:34.511Z,15.40
2019-04-06T13:33:06.583Z,15.50
2019-04-06T13:36:28.112Z,15.40
2019-04-06T13:39:50.098Z,15.80
2019-04-06T13:43:04.879Z,15.60
2019-04-06T13:46:26.313Z,15.80
2019-04-06T13:50:01.175Z,16.10
2019-04-06T13:53:35.764Z,16.30
2019-04-06T13:56:58.311Z,16.40
2019-04-06T14:00:12.846Z,16.70
2019-04-06T14:03:32.482Z,16.60
2019-04-06T14:06:42.688Z,16.90
2019-04-06T14:10:11.882Z,17.30
2019-04-06T14:13:27.816Z,17.30
2019-04-06T14:16:38.177Z,17.60
2019-04-06T14:20:09.825Z,17.50
2019-04-06T14:23:32.359Z,17.60
2019-04-06T14:26:54.260Z,17.80
2019-04-06T14:30:25.798Z,17.90
2019-04-06T14:33:40.049Z,18.00
2019-04-06T14:36:58.451Z,18.00
2019-04-06T14:40:23.847Z,18.00
2019-04-06T14:43:35.919Z,17.60
2019-04-06T14:47:10.748Z,17.60
2019-04-06T14:50:21.783Z,17.40
2019-04-06T14:53:43.421Z,17.50
2019-04-06T14:57:09.048Z,17.30
2019-04-06T15:00:34.171Z,16.80
2019-04-06T15:04:03.789Z,16.50
2019-04-06T15:07:21.886Z,16.60
2019-04-06T15:10:47.538Z,16.80
2019-04-06T15:14:10.100Z,16.90
2019-04-06T15:17:20.169Z,16.60
2019-04-06T15:20:41.579Z,16.40
2019-04-06T15:23:58.652Z,16.30
2019-04-06T15:27:19.802Z,16.10
2019-04-06T15:30:33.806Z,16.10
2019-04-06T15:33:55.782Z,15.90
2019-04-06T15:37:19.050Z,15.80
2019-04-06T15:40:54.189Z,15.70
2019-04-06T15:44:29.539Z,15.70
2019-04-06T15:47:52.075Z,15.70
2019-04-06T15:51:23.454Z,15.80
2019-04-06T15:54:35.353Z,15.90
2019-04-06T15:57:57.328Z,15.90
2019-04-06T16:01:35.286Z,15.80
2019-04-06T16:04:52.689Z,15.80
2019-04-06T16:08:13.791Z,15.80
2019-04-06T16:11:42.396Z,15.80
2019-04-06T16:14:55.574Z,15.80
2019-04-06T16:18:14.345Z,15.70
2019-04-06T16:21:44.847Z,15.70
2019-04-06T16:24:52.789Z,15.70
2019-04-06T16:28:04.634Z,15.60
2019-04-06T16:32:10.100Z,15.60
2019-04-06T16:35:40.240Z,15.60
2019-04-06T16:39:18.717Z,15.60
2019-04-06T16:42:50.686Z,15.70
2019-04-06T16:46:06.589Z,15.70
2019-04-06T16:49:21.144Z,15.70
2019-04-06T16:52:50.720Z,15.70
2019-04-06T16:56:06.902Z,15.70
2019-04-06T16:59:28.551Z,15.60
2019-04-06T17:02:51.092Z,15.50
2019-04-06T17:06:02.560Z,15.50
2019-04-06T17:09:11.607Z,15.40
2019-04-06T17:12:34.336Z,15.30
2019-04-06T17:15:57.089Z,15.20
2019-04-06T17:19:21.385Z,15.10
2019-04-06T17:22:47.163Z,15.00
2019-04-06T17:26:09.664Z,15.00
2019-04-06T17:29:29.114Z,14.90
2019-04-06T17:32:48.280Z,14.90
2019-04-06T17:35:59.350Z,14.90
2019-04-06T17:39:21.651Z,14.70
2019-04-06T17:42:44.473Z,14.60
2019-04-06T17:46:12.896Z,14.50
2019-04-06T17:49:39.644Z,14.30
2019-04-06T17:53:00.674Z,14.20
2019-04-06T17:56:23.694Z,14.10
2019-04-06T17:59:58.341Z,14.00
2019-04-06T18:03:15.212Z,14.00
2019-04-06T18:06:35.084Z,13.90
2019-04-06T18:09:48.342Z,13.80
2019-04-06T18:13:07.534Z,13.70
2019-04-06T18:16:11.508Z,13.60
2019-04-06T18:19:15.133Z,13.50
2019-04-06T18:22:18.761Z,13.50
2019-04-06T18:25:22.014Z,13.50
2019-04-06T18:28:25.305Z,13.40
2019-04-06T18:31:57.505Z,13.30
2019-04-06T18:35:00.854Z,13.30
2019-04-06T18:38:26.362Z,13.20
2019-04-06T18:41:29.647Z,13.20
2019-04-06T18:44:32.830Z,13.20
2019-04-06T18:47:36.106Z,13.20
2019-04-06T18:50:39.183Z,13.20
2019-04-06T18:53:42.542Z,13.10
2019-04-06T18:56:45.905Z,13.10
2019-04-06T18:59:49.213Z,13.00
2019-04-06T19:02:52.690Z,13.00
2019-04-06T19:05:55.799Z,13.00
2019-04-06T19:08:59.554Z,13.00
2019-04-06T19:12:03.082Z,12.90
2019-04-06T19:15:06.970Z,12.90
2019-04-06T19:18:10.387Z,13.00
2019-04-06T19:21:13.364Z,12.90
2019-04-06T19:24:17.271Z,12.90
2019-04-06T19:27:21.628Z,12.80
2019-04-06T19:30:24.822Z,12.80
2019-04-06T19:33:28.374Z,12.80
2019-04-06T19:36:31.457Z,12.90
2019-04-06T19:39:35.344Z,12.90
2019-04-06T19:42:39.040Z,12.90
2019-04-06T19:45:42.967Z,12.90
2019-04-06T19:48:46.391Z,12.90
2019-04-06T19:51:49.723Z,12.90
2019-04-06T19:54:53.462Z,12.90
2019-04-06T19:57:56.437Z,12.90
2019-04-06T20:00:59.807Z,12.90
2019-04-06T20:04:02.894Z,13.00
2019-04-06T20:07:05.905Z,13.00
2019-04-06T20:10:10.305Z,12.90
2019-04-06T20:13:13.534Z,12.80
2019-04-06T20:16:16.842Z,12.90
2019-04-06T20:19:22.398Z,12.90
2019-04-06T20:22:25.876Z,12.70
2019-04-06T20:25:28.820Z,12.70
2019-04-06T20:28:32.065Z,12.70
2019-04-06T20:31:35.471Z,12.70
2019-04-06T20:34:38.992Z,12.70
2019-04-06T20:37:42.288Z,12.70
2019-04-06T20:40:45.327Z,12.70
2019-04-06T20:43:48.634Z,12.70
2019-04-06T20:46:51.660Z,12.60
2019-04-06T20:49:54.824Z,12.60
2019-04-06T20:52:58.400Z,12.60
2019-04-06T20:56:01.929Z,12.60
2019-04-06T20:59:06.433Z,12.60
2019-04-06T21:02:10.310Z,12.60
2019-04-06T21:05:13.794Z,12.60
2019-04-06T21:08:17.199Z,12.50
2019-04-06T21:11:20.565Z,12.40
2019-04-06T21:14:24.151Z,12.40
2019-04-06T21:17:27.627Z,12.30
2019-04-06T21:20:30.860Z,12.30
2019-04-06T21:23:34.852Z,12.20
2019-04-06T21:26:38.056Z,12.10
2019-04-06T21:29:41.430Z,12.10
2019-04-06T21:32:45.878Z,12.10
2019-04-06T21:35:50.097Z,12.10
2019-04-06T21:38:53.710Z,12.10
2019-04-06T21:41:56.789Z,12.20
2019-04-06T21:45:00.009Z,12.20
2019-04-06T21:48:04.552Z,12.20
2019-04-06T21:51:07.871Z,12.20
2019-04-06T21:54:11.280Z,12.10
2019-04-06T21:57:14.247Z,12.10
2019-04-06T22:00:26.288Z,12.20
2019-04-06T22:03:32.640Z,12.20
2019-04-06T22:06:36.169Z,12.20
2019-04-06T22:09:39.097Z,11.90
2019-04-06T22:12:42.008Z,12.10
2019-04-06T22:15:45.110Z,12.10
2019-04-06T22:18:48.723Z,12.10
2019-04-06T22:21:51.773Z,12.10
2019-04-06T22:24:56.385Z,12.10
2019-04-06T22:28:00.778Z,12.00
2019-04-06T22:31:04.239Z,12.10
2019-04-06T22:34:08.093Z,12.10
2019-04-06T22:37:11.353Z,12.10
2019-04-06T22:40:15.283Z,12.10
2019-04-06T22:43:18.195Z,12.10
2019-04-06T22:46:22.174Z,12.20
2019-04-06T22:49:25.539Z,12.20
2019-04-06T22:52:29.015Z,12.30
2019-04-06T22:55:32.403Z,12.30
2019-04-06T22:58:35.764Z,12.40
2019-04-06T23:01:40.119Z,12.40
2019-04-06T23:05:09.441Z,12.30
2019-04-06T23:08:12.868Z,12.40
2019-04-06T23:11:15.787Z,12.70
2019-04-06T23:14:19.161Z,12.60
2019-04-06T23:17:22.549Z,12.60
2019-04-06T23:20:25.489Z,12.50
2019-04-06T23:23:28.406Z,12.60
2019-04-06T23:26:31.645Z,12.40
2019-04-06T23:29:36.502Z,12.40
2019-04-06T23:32:39.990Z,12.30
2019-04-06T23:35:43.685Z,12.30
2019-04-06T23:38:46.604Z,12.40
2019-04-06T23:41:49.875Z,12.50
2019-04-06T23:44:53.226Z,12.40
2019-04-06T23:47:57.644Z,12.40
2019-04-06T23:51:00.875Z,12.40
2019-04-06T23:54:05.501Z,12.40
2019-04-06T23:57:09.211Z,12.40
